TAM3547 SBGO-SBGR
Flight info
| Callsign | TAM3547 |
|---|---|
| Flight time | N/A |
| Altitude | 34000 |
| Route | ESBOD DCT UPONA DCT OBLUG/N0440F330 DCT ZARES |
| Aircraft | A320/M-SDE3FGHIRWY/LB1 |
Departure
| Time | 2026-05-01 13:57 |
|---|---|
| Airport | Santa Genoveva International Airport (SBGO) |
Arrival
| Time | N/A |
|---|---|
| Airport | São Paulo/Guarulhos–Governor André Franco Montoro International Airport (SBGR) |
| Time | Latitude | Longitude | Altitude | Speed | Heading |
|---|---|---|---|---|---|
| 2026-05-01 13:25 | -16.63199 | -49.22671 | 2465 ft | 0 kts | 212° |
| 2026-05-01 13:48 | -16.63194 | -49.22668 | 2465 ft | 2 kts | 212° |
| 2026-05-01 13:48 | -16.63179 | -49.22658 | 2465 ft | 3 kts | 212° |
| 2026-05-01 13:49 | -16.63162 | -49.22647 | 2465 ft | 3 kts | 212° |
| 2026-05-01 13:49 | -16.63156 | -49.22643 | 2465 ft | 0 kts | 212° |
| 2026-05-01 13:51 | -16.63156 | -49.22644 | 2465 ft | 0 kts | 212° |
| 2026-05-01 13:51 | -16.63157 | -49.22644 | 2465 ft | 0 kts | 212° |
| 2026-05-01 13:53 | -16.63161 | -49.22646 | 2465 ft | 4 kts | 200° |
| 2026-05-01 13:54 | -16.63190 | -49.22584 | 2465 ft | 16 kts | 98° |
| 2026-05-01 13:54 | -16.63255 | -49.22450 | 2465 ft | 18 kts | 122° |
| 2026-05-01 13:54 | -16.63278 | -49.22412 | 2465 ft | 9 kts | 122° |
| 2026-05-01 13:54 | -16.63328 | -49.22328 | 2465 ft | 18 kts | 122° |
| 2026-05-01 13:55 | -16.63413 | -49.22189 | 2465 ft | 27 kts | 122° |
| 2026-05-01 13:55 | -16.63534 | -49.21990 | 2465 ft | 33 kts | 122° |
| 2026-05-01 13:55 | -16.63648 | -49.21802 | 2465 ft | 26 kts | 122° |
| 2026-05-01 13:55 | -16.63728 | -49.21671 | 2465 ft | 21 kts | 122° |
| 2026-05-01 13:56 | -16.63740 | -49.21527 | 2465 ft | 22 kts | 81° |
| 2026-05-01 13:56 | -16.63645 | -49.21451 | 2465 ft | 19 kts | 309° |
| 2026-05-01 13:56 | -16.63511 | -49.21681 | 2465 ft | 71 kts | 302° |
| 2026-05-01 13:56 | -16.63114 | -49.22344 | 2465 ft | 141 kts | 302° |
| 2026-05-01 13:57 | -16.62535 | -49.23307 | 2882 ft | 157 kts | 302° |
| 2026-05-01 13:57 | -16.62151 | -49.23948 | 3469 ft | 157 kts | 302° |
| 2026-05-01 13:57 | -16.61527 | -49.24986 | 4332 ft | 160 kts | 302° |
| 2026-05-01 13:57 | -16.60964 | -49.25979 | 4954 ft | 158 kts | 300° |
| 2026-05-01 13:58 | -16.60419 | -49.26975 | 5503 ft | 157 kts | 300° |
| 2026-05-01 13:58 | -16.59865 | -49.27982 | 5917 ft | 169 kts | 300° |
| 2026-05-01 13:58 | -16.59229 | -49.29134 | 6229 ft | 197 kts | 300° |
| 2026-05-01 13:58 | -16.58473 | -49.30479 | 6592 ft | 228 kts | 300° |
| 2026-05-01 13:59 | -16.57623 | -49.31974 | 7272 ft | 245 kts | 298° |
| 2026-05-01 13:59 | -16.56751 | -49.33630 | 7653 ft | 279 kts | 292° |
| 2026-05-01 13:59 | -16.56339 | -49.35769 | 7748 ft | 320 kts | 269° |
| 2026-05-01 13:59 | -16.56889 | -49.38162 | 7770 ft | 362 kts | 247° |
| 2026-05-01 14:00 | -16.58410 | -49.40096 | 9025 ft | 320 kts | 220° |
| 2026-05-01 14:00 | -16.60313 | -49.40937 | 10510 ft | 290 kts | 192° |
| 2026-05-01 14:00 | -16.62273 | -49.40701 | 11899 ft | 284 kts | 162° |
| 2026-05-01 14:00 | -16.63823 | -49.39504 | 13167 ft | 275 kts | 131° |
| 2026-05-01 14:01 | -16.64747 | -49.37837 | 14375 ft | 254 kts | 119° |
| 2026-05-01 14:01 | -16.65509 | -49.36194 | 15036 ft | 253 kts | 118° |
| 2026-05-01 14:01 | -16.66378 | -49.34619 | 15328 ft | 255 kts | 137° |
| 2026-05-01 14:01 | -16.67909 | -49.33648 | 15553 ft | 246 kts | 174° |
| 2026-05-01 14:02 | -16.69569 | -49.33535 | 16015 ft | 236 kts | 185° |
| 2026-05-01 14:02 | -16.71211 | -49.33545 | 16435 ft | 237 kts | 186° |
| 2026-05-01 14:02 | -16.72877 | -49.33560 | 16828 ft | 238 kts | 186° |
| 2026-05-01 14:02 | -16.74543 | -49.33575 | 17208 ft | 240 kts | 186° |
| 2026-05-01 14:03 | -16.76215 | -49.33589 | 17573 ft | 241 kts | 186° |
| 2026-05-01 14:03 | -16.77895 | -49.33603 | 17931 ft | 243 kts | 186° |
| 2026-05-01 14:03 | -16.79584 | -49.33708 | 18265 ft | 242 kts | 193° |
| 2026-05-01 14:03 | -16.81310 | -49.34102 | 18633 ft | 240 kts | 203° |
| 2026-05-01 14:04 | -16.82843 | -49.34767 | 18995 ft | 237 kts | 212° |
| 2026-05-01 14:04 | -16.84303 | -49.35569 | 19380 ft | 237 kts | 213° |
| 2026-05-01 14:04 | -16.85761 | -49.36393 | 19727 ft | 238 kts | 213° |
| 2026-05-01 14:04 | -16.86750 | -49.36957 | 19961 ft | 239 kts | 213° |
| 2026-05-01 14:05 | -16.88690 | -49.38069 | 20410 ft | 241 kts | 214° |
| 2026-05-01 14:05 | -16.90161 | -49.38915 | 20745 ft | 242 kts | 214° |
| 2026-05-01 14:05 | -16.91657 | -49.39778 | 21080 ft | 243 kts | 214° |
| 2026-05-01 14:05 | -16.93187 | -49.40662 | 21419 ft | 245 kts | 214° |
| 2026-05-01 14:06 | -16.94657 | -49.41512 | 21738 ft | 246 kts | 214° |
| 2026-05-01 14:06 | -16.96166 | -49.42384 | 22054 ft | 247 kts | 214° |
| 2026-05-01 14:06 | -16.97676 | -49.43258 | 22364 ft | 249 kts | 214° |
| 2026-05-01 14:06 | -16.99215 | -49.44149 | 22670 ft | 250 kts | 214° |
| 2026-05-01 14:07 | -17.00736 | -49.45030 | 22963 ft | 251 kts | 214° |
| 2026-05-01 14:07 | -17.02273 | -49.45920 | 23252 ft | 252 kts | 213° |
| 2026-05-01 14:07 | -17.03807 | -49.46809 | 23533 ft | 254 kts | 213° |
| 2026-05-01 14:08 | -17.06937 | -49.48623 | 24082 ft | 256 kts | 213° |
| 2026-05-01 14:08 | -17.08019 | -49.49245 | 24264 ft | 257 kts | 211° |